createdAt,value
2023-05-22T00:00:18.070Z,14.7656
2023-05-22T00:01:19.896Z,14.6746
2023-05-22T00:02:22.168Z,14.6211
2023-05-22T00:03:23.345Z,14.5494
2023-05-22T00:04:25.318Z,14.5117
2023-05-22T00:05:27.283Z,14.4539
2023-05-22T00:07:29.177Z,14.4910
2023-05-22T00:10:32.212Z,14.5045
2023-05-22T00:11:34.266Z,14.5071
2023-05-22T00:16:40.560Z,14.2270
2023-05-22T00:17:40.879Z,14.1787
2023-05-22T00:18:42.112Z,14.1762
2023-05-22T00:19:43.983Z,14.1049
2023-05-22T00:20:45.204Z,13.9826
2023-05-22T00:21:47.427Z,13.9414
2023-05-22T00:22:48.670Z,13.8795
2023-05-22T00:23:50.306Z,13.7998
2023-05-22T00:24:51.495Z,13.7277
2023-05-22T00:25:52.433Z,13.6314
2023-05-22T00:26:54.325Z,13.4802
2023-05-22T00:28:07.312Z,13.4416
2023-05-22T00:29:27.852Z,13.2882
2023-05-22T00:30:28.489Z,13.1701
2023-05-22T00:31:31.320Z,13.0926
2023-05-22T00:34:35.448Z,12.8441
2023-05-22T00:35:35.649Z,12.7761
2023-05-22T00:37:38.550Z,12.6024
2023-05-22T00:38:40.368Z,12.5392
2023-05-22T00:39:42.605Z,12.4982
2023-05-22T00:40:43.806Z,12.4345
2023-05-22T00:48:30.617Z,12.0624
2023-05-22T00:49:31.210Z,12.0419
2023-05-22T00:50:31.607Z,12.0384
2023-05-22T00:51:35.738Z,12.0161
2023-05-22T00:58:41.915Z,12.2168
2023-05-22T00:59:44.082Z,12.2861
2023-05-22T01:00:44.670Z,12.2931
2023-05-22T01:01:46.831Z,12.3217
2023-05-22T01:09:25.029Z,12.3637
2023-05-22T01:10:25.664Z,12.3442
2023-05-22T01:11:27.488Z,12.3497
2023-05-22T01:12:28.849Z,12.2937
2023-05-22T01:13:30.093Z,12.3207
2023-05-22T01:16:02.539Z,12.3849
2023-05-22T01:17:03.789Z,12.3466
2023-05-22T01:19:06.685Z,12.3321
2023-05-22T01:20:08.670Z,12.3293
2023-05-22T01:21:09.040Z,12.3215
2023-05-22T01:22:10.274Z,12.2490
2023-05-22T01:23:10.560Z,12.2134
2023-05-22T01:24:12.790Z,12.1674
2023-05-22T01:25:14.160Z,12.0201
2023-05-22T01:26:15.816Z,11.9844
2023-05-22T01:27:16.967Z,11.9093
2023-05-22T01:28:19.039Z,11.8683
2023-05-22T01:29:20.299Z,11.8878
2023-05-22T01:30:21.698Z,11.8188
2023-05-22T01:31:21.965Z,11.6868
2023-05-22T01:32:23.003Z,11.7164
2023-05-22T01:33:24.809Z,11.7108
2023-05-22T01:34:26.863Z,11.6954
2023-05-22T01:35:28.939Z,11.6162
2023-05-22T01:36:30.809Z,11.6554
2023-05-22T01:37:32.089Z,11.6523
2023-05-22T01:38:33.782Z,11.6173
2023-05-22T01:39:35.038Z,11.5385
2023-05-22T01:40:36.693Z,11.5153
2023-05-22T01:41:38.497Z,11.4813
2023-05-22T01:42:40.335Z,11.4561
2023-05-22T01:43:41.105Z,11.3991
2023-05-22T01:44:40.480Z,11.3549
2023-05-22T01:45:41.047Z,11.1855
2023-05-22T01:46:41.221Z,11.1220
2023-05-22T01:47:42.244Z,11.0893
2023-05-22T01:48:44.872Z,11.0420
2023-05-22T01:49:46.357Z,10.9472
2023-05-22T01:50:48.371Z,10.8459
2023-05-22T01:51:49.576Z,10.7428
2023-05-22T01:52:51.444Z,10.7718
2023-05-22T01:53:53.192Z,10.7829
2023-05-22T01:54:55.326Z,10.6880
2023-05-22T01:57:58.667Z,10.4651
2023-05-22T02:06:08.152Z,9.8770
2023-05-22T02:08:10.036Z,9.8701
2023-05-22T02:09:11.558Z,9.7913
2023-05-22T02:11:12.103Z,9.7748
2023-05-22T02:12:12.769Z,9.7366
2023-05-22T02:13:13.007Z,9.5906
2023-05-22T02:14:14.798Z,9.5845
2023-05-22T02:16:16.681Z,9.5411
2023-05-22T02:18:18.787Z,9.4530
2023-05-22T02:19:20.144Z,9.3790
2023-05-22T02:20:22.953Z,9.3197
2023-05-22T02:21:23.575Z,9.3642
2023-05-22T02:22:24.651Z,9.4689
2023-05-22T02:23:26.053Z,9.5408
2023-05-22T02:24:26.802Z,9.6497
2023-05-22T02:25:28.896Z,9.8987
2023-05-22T02:26:31.106Z,10.0498
2023-05-22T02:27:32.156Z,10.0234
2023-05-22T02:28:34.266Z,9.9391
2023-05-22T02:29:35.295Z,9.8234
2023-05-22T02:30:36.907Z,9.7493
2023-05-22T02:31:38.724Z,9.5724
2023-05-22T02:32:39.467Z,9.4657
2023-05-22T02:33:40.906Z,9.4976
2023-05-22T02:34:42.693Z,9.6573
2023-05-22T02:35:44.186Z,9.7790
2023-05-22T02:36:45.836Z,9.8383
2023-05-22T02:37:47.244Z,9.8605
2023-05-22T02:38:49.003Z,9.8513
2023-05-22T02:39:49.720Z,9.8620
2023-05-22T02:42:53.770Z,9.7658
2023-05-22T02:43:53.734Z,9.6396
2023-05-22T02:44:55.369Z,9.5226
2023-05-22T02:45:57.454Z,9.5227
2023-05-22T02:46:59.075Z,9.6719
2023-05-22T02:48:00.207Z,9.7730
2023-05-22T02:49:01.646Z,9.8828
2023-05-22T02:50:02.117Z,9.9030
2023-05-22T02:51:02.190Z,9.7898
2023-05-22T02:52:04.600Z,9.7339
2023-05-22T02:53:05.564Z,10.0120
2023-05-22T02:54:07.224Z,10.0779
2023-05-22T02:55:08.903Z,10.1214
2023-05-22T02:56:09.077Z,10.1163
2023-05-22T02:57:10.221Z,10.2074
2023-05-22T02:58:25.577Z,10.3929
2023-05-22T02:59:43.065Z,10.3674
2023-05-22T03:00:44.077Z,10.3155
2023-05-22T03:01:46.204Z,10.2416
2023-05-22T03:03:48.670Z,10.0709
2023-05-22T03:04:50.226Z,10.0669
2023-05-22T03:05:50.922Z,10.0460
2023-05-22T03:06:52.220Z,10.1942
2023-05-22T03:07:53.626Z,10.4702
2023-05-22T03:10:54.031Z,10.4515
2023-05-22T03:11:55.233Z,10.3710
2023-05-22T03:12:55.347Z,10.2932
2023-05-22T03:13:57.501Z,10.2145
2023-05-22T03:14:58.948Z,10.0639
2023-05-22T03:16:00.410Z,9.8838
2023-05-22T03:17:02.259Z,9.7414
2023-05-22T03:18:03.621Z,9.5552
2023-05-22T03:19:05.403Z,9.4292
2023-05-22T03:21:06.353Z,9.1654
2023-05-22T03:22:08.281Z,9.0707
2023-05-22T03:23:09.505Z,9.0310
2023-05-22T03:24:10.128Z,8.9456
2023-05-22T03:25:10.808Z,8.8511
2023-05-22T03:26:12.757Z,8.7977
2023-05-22T03:27:13.862Z,8.8162
2023-05-22T03:28:16.047Z,8.8671
2023-05-22T03:29:16.364Z,8.8693
2023-05-22T03:30:16.579Z,8.8914
2023-05-22T03:31:18.753Z,8.8845
2023-05-22T03:32:20.356Z,8.9026
2023-05-22T03:33:20.989Z,8.8959
2023-05-22T03:35:21.871Z,8.8166
2023-05-22T03:36:23.031Z,8.8342
2023-05-22T03:37:23.823Z,8.8559
2023-05-22T03:38:25.756Z,9.0179
2023-05-22T03:39:26.893Z,9.5175
2023-05-22T03:40:28.307Z,10.0579
2023-05-22T03:41:28.717Z,10.3809
2023-05-22T03:42:30.385Z,10.4115
2023-05-22T03:43:31.028Z,10.4654
2023-05-22T03:44:32.129Z,10.3909
2023-05-22T03:45:37.627Z,10.3470
2023-05-22T03:51:40.921Z,10.1242
2023-05-22T03:52:41.310Z,10.0971
2023-05-22T03:53:42.715Z,10.0859
2023-05-22T03:54:44.358Z,10.0198
2023-05-22T03:55:46.309Z,9.9622
2023-05-22T03:56:48.892Z,9.8884
2023-05-22T04:04:55.899Z,10.8340
2023-05-22T04:05:58.219Z,10.8689
2023-05-22T04:06:59.460Z,10.8699
2023-05-22T04:08:01.186Z,10.8627
2023-05-22T04:09:02.158Z,10.8285
2023-05-22T04:10:02.223Z,10.8239
2023-05-22T04:11:02.581Z,10.7935
2023-05-22T04:12:03.822Z,10.7718
2023-05-22T04:13:04.290Z,10.8059
2023-05-22T04:14:07.615Z,10.8869
2023-05-22T04:15:09.033Z,10.8809
2023-05-22T04:16:09.685Z,10.8998
2023-05-22T04:17:12.054Z,10.9176
2023-05-22T04:18:12.428Z,10.9252
2023-05-22T04:19:12.820Z,10.9038
2023-05-22T04:20:15.437Z,10.8764
2023-05-22T04:21:16.386Z,10.8446
2023-05-22T04:22:17.956Z,10.8937
2023-05-22T04:23:20.302Z,10.8963
2023-05-22T04:24:21.151Z,10.8234
2023-05-22T04:25:23.851Z,10.8767
2023-05-22T04:27:25.066Z,10.9368
2023-05-22T04:29:29.197Z,10.9960
2023-05-22T04:30:31.158Z,11.0516
2023-05-22T04:31:33.165Z,11.0890
2023-05-22T04:32:35.210Z,11.0999
2023-05-22T04:40:42.088Z,11.0522
2023-05-22T04:41:44.412Z,11.0111
2023-05-22T04:42:46.245Z,11.0965
2023-05-22T04:43:48.236Z,11.0914
2023-05-22T04:44:49.344Z,10.9994
2023-05-22T04:45:51.745Z,11.0214
2023-05-22T04:51:58.945Z,10.7669
2023-05-22T04:53:00.737Z,10.6113
2023-05-22T04:54:02.713Z,10.7037
2023-05-22T04:55:04.585Z,10.7548
2023-05-22T04:56:03.977Z,10.8150
2023-05-22T04:57:06.177Z,10.9619
2023-05-22T04:59:07.520Z,11.0655
2023-05-22T05:00:08.935Z,11.1105
2023-05-22T05:01:10.329Z,11.1898
2023-05-22T05:02:12.371Z,11.3301
2023-05-22T05:03:13.538Z,11.3714
2023-05-22T05:04:13.863Z,11.3843
2023-05-22T05:05:15.219Z,11.4989
2023-05-22T05:06:16.677Z,11.5982
2023-05-22T05:07:19.051Z,11.6681
2023-05-22T05:08:21.056Z,11.7802
2023-05-22T05:16:29.915Z,13.1067
2023-05-22T05:17:30.165Z,13.4044
2023-05-22T05:18:32.343Z,13.4139
2023-05-22T05:20:33.672Z,13.6473
2023-05-22T05:21:35.460Z,13.5467
2023-05-22T05:22:36.022Z,13.7745
2023-05-22T05:23:38.136Z,13.8464
2023-05-22T05:24:40.110Z,13.8651
2023-05-22T05:25:41.978Z,14.1582
2023-05-22T05:26:43.148Z,14.1053
2023-05-22T05:27:44.457Z,14.4248
2023-05-22T05:28:46.166Z,14.4465
2023-05-22T05:29:46.653Z,14.4292
2023-05-22T05:30:48.014Z,14.4318
2023-05-22T05:31:50.051Z,14.4615
2023-05-22T05:33:51.606Z,14.8444
2023-05-22T05:35:54.401Z,14.9894
2023-05-22T05:36:54.931Z,15.1089
2023-05-22T05:38:57.153Z,15.6073
2023-05-22T05:39:57.428Z,15.7345
2023-05-22T05:40:59.293Z,15.8461
2023-05-22T05:42:00.918Z,15.7800
2023-05-22T05:43:01.897Z,15.9414
2023-05-22T05:45:02.211Z,16.1733
2023-05-22T05:46:02.343Z,16.1464
2023-05-22T05:48:05.137Z,15.5734
2023-05-22T05:49:06.641Z,15.4788
2023-05-22T05:50:07.146Z,15.2948
2023-05-22T05:51:09.355Z,15.7439
2023-05-22T05:52:10.850Z,15.9648
2023-05-22T05:55:14.678Z,16.1830
2023-05-22T05:56:15.084Z,16.0650
2023-05-22T05:57:16.233Z,15.8907
2023-05-22T05:58:17.435Z,15.7604
2023-05-22T05:59:18.947Z,15.4853
2023-05-22T06:00:20.277Z,15.4561
2023-05-22T06:01:22.393Z,15.3715
2023-05-22T06:02:23.982Z,15.2276
2023-05-22T06:03:27.590Z,15.0807
2023-05-22T06:04:25.374Z,15.1516
2023-05-22T06:06:27.931Z,15.1947
2023-05-22T06:07:29.117Z,15.1621
2023-05-22T06:08:30.329Z,15.3179
2023-05-22T06:09:31.771Z,15.7088
2023-05-22T06:10:32.997Z,15.7990
2023-05-22T06:11:34.812Z,15.7025
2023-05-22T06:12:36.249Z,15.6622
2023-05-22T06:13:37.978Z,15.8839
2023-05-22T06:14:39.523Z,15.8182
2023-05-22T06:15:41.448Z,15.9817
2023-05-22T06:16:44.323Z,16.1322
2023-05-22T06:17:44.360Z,16.6939
2023-05-22T06:18:44.445Z,16.7567
2023-05-22T06:19:45.940Z,17.1373
2023-05-22T06:20:47.249Z,17.0414
2023-05-22T06:21:51.410Z,17.2597
2023-05-22T06:22:50.644Z,17.5482
2023-05-22T06:23:52.623Z,17.5035
2023-05-22T06:24:53.824Z,17.0255
2023-05-22T06:25:55.180Z,16.9956
2023-05-22T06:26:57.276Z,16.8717
2023-05-22T06:27:59.501Z,16.7269
2023-05-22T06:29:03.000Z,16.8358
2023-05-22T06:31:03.624Z,16.9787
2023-05-22T06:32:04.530Z,16.9140
2023-05-22T06:33:06.195Z,16.8706
2023-05-22T06:34:07.720Z,16.6394
2023-05-22T06:35:08.230Z,16.7845
2023-05-22T06:36:08.284Z,16.8745
2023-05-22T06:37:10.322Z,16.7456
2023-05-22T06:38:11.575Z,16.6823
2023-05-22T06:42:45.201Z,16.7438
2023-05-22T06:43:46.881Z,17.2036
2023-05-22T06:45:48.913Z,17.5175
2023-05-22T06:48:49.700Z,17.0130
2023-05-22T06:49:50.748Z,17.1759
2023-05-22T06:50:52.728Z,17.3338
2023-05-22T06:51:54.385Z,17.4745
2023-05-22T06:52:55.024Z,17.8680
2023-05-22T06:54:56.404Z,17.9172
2023-05-22T06:55:57.810Z,18.1728
2023-05-22T06:57:59.490Z,18.5796
2023-05-22T06:59:00.825Z,18.3497
2023-05-22T07:00:02.525Z,18.2681
2023-05-22T07:02:05.782Z,18.3524
2023-05-22T07:03:07.293Z,18.5075
2023-05-22T07:04:09.251Z,18.8900
2023-05-22T07:05:09.290Z,19.2681
2023-05-22T07:06:11.577Z,19.5314
2023-05-22T07:07:14.181Z,19.7007
2023-05-22T07:10:17.118Z,19.6833
2023-05-22T07:11:19.119Z,19.4678
2023-05-22T07:12:20.397Z,19.3089
2023-05-22T07:13:21.916Z,19.1464
2023-05-22T07:14:23.757Z,18.9182
2023-05-22T07:15:24.975Z,18.7703
2023-05-22T07:16:26.267Z,18.5787
2023-05-22T07:17:26.969Z,18.4017
2023-05-22T07:20:31.778Z,18.7440
2023-05-22T07:21:33.704Z,19.0575
2023-05-22T07:22:35.194Z,18.8564
2023-05-22T07:23:36.426Z,18.9825
2023-05-22T07:25:38.091Z,18.8250
2023-05-22T07:26:39.031Z,18.8365
2023-05-22T07:27:40.286Z,19.2629
2023-05-22T07:28:41.979Z,19.5696
2023-05-22T07:29:43.152Z,19.4219
2023-05-22T07:30:44.500Z,19.5411
2023-05-22T07:31:45.323Z,19.7521
2023-05-22T07:32:45.390Z,19.7079
2023-05-22T07:33:46.444Z,19.9464
2023-05-22T07:34:48.036Z,20.0481
2023-05-22T07:35:49.453Z,20.4697
2023-05-22T07:36:50.462Z,20.2610
2023-05-22T07:37:52.075Z,20.0588
2023-05-22T07:38:53.884Z,19.7149
2023-05-22T07:39:54.258Z,19.7026
2023-05-22T07:40:56.378Z,20.0030
2023-05-22T07:41:58.812Z,19.8641
2023-05-22T07:42:58.170Z,19.8384
2023-05-22T07:43:58.286Z,20.2216
2023-05-22T07:45:00.130Z,20.7169
2023-05-22T07:46:02.138Z,20.7751
2023-05-22T07:47:02.850Z,20.8616
2023-05-22T07:48:02.933Z,20.6936
2023-05-22T07:49:03.656Z,20.5416
2023-05-22T07:50:04.408Z,20.6318
2023-05-22T07:51:05.853Z,20.3777
2023-05-22T07:52:07.674Z,20.3772
2023-05-22T07:53:08.279Z,20.5723
2023-05-22T07:54:09.598Z,20.5637
2023-05-22T07:55:09.664Z,20.7338
2023-05-22T07:56:11.567Z,21.0780
2023-05-22T07:57:13.622Z,21.1023
2023-05-22T07:58:16.535Z,21.2526
2023-05-22T07:59:17.517Z,21.1983
2023-05-22T08:00:19.687Z,21.0552
2023-05-22T08:01:20.302Z,20.9010
2023-05-22T08:02:22.342Z,21.0505
2023-05-22T08:03:24.378Z,21.3909
2023-05-22T08:04:23.954Z,21.1413
2023-05-22T08:05:24.902Z,20.9084
2023-05-22T08:06:25.350Z,21.0647
2023-05-22T08:07:27.333Z,21.5408
2023-05-22T08:08:31.699Z,22.0072
2023-05-22T08:09:31.226Z,21.8270
2023-05-22T08:10:46.504Z,21.6339
2023-05-22T08:12:04.789Z,21.2021
2023-05-22T08:13:04.868Z,21.2529
2023-05-22T08:14:07.050Z,20.9565
2023-05-22T08:15:08.822Z,21.2433
2023-05-22T08:16:11.000Z,21.4002
2023-05-22T08:17:11.963Z,21.4788
2023-05-22T08:18:14.152Z,21.7724
2023-05-22T08:19:15.710Z,22.2402
2023-05-22T08:20:17.380Z,22.3675
2023-05-22T08:21:19.181Z,22.3017
2023-05-22T08:22:21.134Z,22.1598
2023-05-22T08:23:22.561Z,22.0508
2023-05-22T08:24:23.778Z,21.8877
2023-05-22T08:25:25.422Z,21.6644
2023-05-22T08:26:26.662Z,21.7754
2023-05-22T08:27:28.398Z,21.6833
2023-05-22T08:28:30.006Z,21.7662
2023-05-22T08:29:30.623Z,21.7929
2023-05-22T08:30:30.828Z,22.0086
2023-05-22T08:31:32.334Z,21.6567
2023-05-22T08:32:32.590Z,21.7599
2023-05-22T08:33:34.056Z,21.6779
2023-05-22T08:34:35.457Z,21.6658
2023-05-22T08:35:37.153Z,21.8925
2023-05-22T08:36:38.713Z,22.0925
2023-05-22T08:37:40.011Z,22.0451
2023-05-22T08:38:41.769Z,22.2343
2023-05-22T08:39:43.305Z,22.1904
2023-05-22T08:40:46.466Z,22.2292
2023-05-22T08:41:46.539Z,22.0123
2023-05-22T08:42:48.340Z,22.0009
2023-05-22T08:43:50.186Z,22.0633
2023-05-22T08:44:51.687Z,22.3987
2023-05-22T08:45:53.300Z,22.4418
2023-05-22T08:46:54.957Z,22.3809
2023-05-22T08:47:56.979Z,22.3365
2023-05-22T08:48:59.017Z,22.4211
2023-05-22T08:49:59.781Z,22.3897
2023-05-22T08:51:00.077Z,22.5223
2023-05-22T08:52:01.542Z,22.5763
2023-05-22T08:53:02.647Z,22.7377
2023-05-22T08:54:02.868Z,22.4511
2023-05-22T08:55:04.336Z,22.2492
2023-05-22T08:56:06.144Z,22.6171
2023-05-22T08:57:07.793Z,22.6205
2023-05-22T08:58:08.432Z,22.4865
2023-05-22T08:59:09.770Z,22.4403
2023-05-22T09:00:10.238Z,22.6991
2023-05-22T09:01:12.085Z,22.5589
2023-05-22T09:02:13.924Z,22.8406
2023-05-22T09:03:15.189Z,22.7421
2023-05-22T09:04:17.316Z,22.8928
2023-05-22T09:05:19.106Z,22.8791
2023-05-22T09:06:20.981Z,22.9860
2023-05-22T09:07:22.797Z,23.1329
2023-05-22T09:08:24.843Z,23.5593
2023-05-22T09:09:26.386Z,23.5816
2023-05-22T09:10:26.861Z,23.7110
2023-05-22T09:11:28.670Z,24.1252
2023-05-22T09:12:29.933Z,23.9941
2023-05-22T09:13:31.870Z,23.6181
2023-05-22T09:14:33.181Z,23.7493
2023-05-22T09:15:34.852Z,23.4302
2023-05-22T09:16:35.626Z,23.5093
2023-05-22T09:17:37.874Z,23.5733
2023-05-22T09:18:39.243Z,23.7117
2023-05-22T09:19:40.477Z,23.7281
2023-05-22T09:20:41.419Z,23.8024
2023-05-22T09:21:41.895Z,24.1354
2023-05-22T09:22:43.505Z,24.4546
2023-05-22T09:23:45.310Z,24.8051
2023-05-22T09:24:47.022Z,25.2548
2023-05-22T09:25:48.967Z,25.5500
2023-05-22T09:26:51.024Z,25.3708
2023-05-22T09:27:52.650Z,25.4209
2023-05-22T09:28:53.978Z,25.3308
2023-05-22T09:29:55.809Z,25.5885
2023-05-22T09:30:56.284Z,25.4292
2023-05-22T09:31:56.535Z,25.2369
2023-05-22T09:32:58.682Z,25.2622
2023-05-22T09:33:59.102Z,25.1569
2023-05-22T09:35:00.850Z,25.4801
2023-05-22T09:36:01.878Z,24.5570
2023-05-22T09:37:03.766Z,24.3824
2023-05-22T09:38:04.792Z,24.1342
2023-05-22T09:39:06.995Z,24.1255
2023-05-22T09:40:07.652Z,24.2632
2023-05-22T09:41:09.684Z,24.4196
2023-05-22T09:42:11.213Z,24.3848
2023-05-22T09:43:11.412Z,24.6868
2023-05-22T09:44:12.538Z,25.0332
2023-05-22T09:45:13.904Z,25.0187
2023-05-22T09:46:14.922Z,24.7495
2023-05-22T09:47:16.843Z,24.7232
2023-05-22T09:48:17.161Z,24.8982
2023-05-22T09:49:19.311Z,24.8602
2023-05-22T09:50:21.511Z,25.0912
2023-05-22T09:51:23.261Z,24.8709
2023-05-22T09:52:23.498Z,25.1029
2023-05-22T09:53:25.231Z,25.0549
2023-05-22T09:54:27.065Z,24.9034
2023-05-22T09:55:27.265Z,24.9274
2023-05-22T09:56:38.486Z,25.1770
2023-05-22T09:57:29.586Z,24.7670
2023-05-22T09:58:31.273Z,24.7669
2023-05-22T09:59:32.781Z,25.1588
2023-05-22T10:00:34.501Z,25.6304
2023-05-22T10:01:34.886Z,26.0447
2023-05-22T10:02:35.706Z,26.5224
2023-05-22T10:03:37.446Z,26.6999
2023-05-22T10:04:39.495Z,26.4775
2023-05-22T10:05:39.859Z,25.7534
2023-05-22T10:06:41.620Z,25.1166
2023-05-22T10:07:43.666Z,24.7172
2023-05-22T10:08:44.083Z,24.5603
2023-05-22T10:09:46.135Z,24.8364
2023-05-22T10:10:47.374Z,24.9125
2023-05-22T10:11:49.262Z,25.0118
2023-05-22T10:12:51.127Z,24.8251
2023-05-22T10:13:53.328Z,24.8583
2023-05-22T10:14:54.312Z,24.7749
2023-05-22T10:15:56.193Z,24.6894
2023-05-22T10:16:57.858Z,24.9180
2023-05-22T10:17:59.434Z,25.3181
2023-05-22T10:19:01.092Z,25.4131
2023-05-22T10:20:00.950Z,25.2967
2023-05-22T10:21:02.179Z,25.6459
2023-05-22T10:22:02.434Z,25.8796
2023-05-22T10:23:04.119Z,26.2047
2023-05-22T10:24:04.925Z,26.1496
2023-05-22T10:25:08.516Z,26.4900
2023-05-22T10:26:08.020Z,26.5744
2023-05-22T10:27:09.374Z,25.8640
2023-05-22T10:30:13.506Z,24.7354
2023-05-22T10:31:14.921Z,24.9688
2023-05-22T10:32:16.462Z,25.1738
2023-05-22T10:33:17.006Z,25.5193
2023-05-22T10:34:17.535Z,25.0914
2023-05-22T10:35:19.248Z,25.1406
2023-05-22T10:36:21.279Z,24.7972
2023-05-22T10:37:22.564Z,24.8280
2023-05-22T10:38:24.173Z,25.1435
2023-05-22T10:39:24.650Z,25.0696
2023-05-22T10:40:27.034Z,25.4036
2023-05-22T10:41:28.582Z,25.4465
2023-05-22T10:42:30.328Z,25.1948
2023-05-22T10:43:30.408Z,25.4655
2023-05-22T10:44:30.889Z,25.8555
2023-05-22T10:45:32.146Z,26.1028
2023-05-22T10:46:32.549Z,25.8150
2023-05-22T10:47:32.929Z,25.4870
2023-05-22T10:48:33.993Z,25.6166
2023-05-22T10:49:35.386Z,25.5937
2023-05-22T10:50:36.733Z,25.1509
2023-05-22T10:51:38.512Z,25.0580
2023-05-22T10:52:39.937Z,24.8283
2023-05-22T10:53:41.653Z,24.8638
2023-05-22T10:54:43.107Z,24.7381
2023-05-22T10:55:44.769Z,24.6771
2023-05-22T10:56:46.471Z,24.5626
2023-05-22T10:57:48.115Z,24.8505
2023-05-22T10:58:49.931Z,24.9523
2023-05-22T10:59:51.468Z,25.1043
2023-05-22T11:00:53.130Z,24.9499
2023-05-22T11:01:53.997Z,25.2542
2023-05-22T11:03:00.812Z,25.2997
2023-05-22T11:04:57.385Z,25.0641
2023-05-22T11:05:59.276Z,25.2423
2023-05-22T11:07:00.638Z,25.5316
2023-05-22T11:08:00.904Z,25.4323
2023-05-22T11:09:02.806Z,25.3501
2023-05-22T11:10:03.781Z,25.3756
2023-05-22T11:11:04.025Z,25.4842
2023-05-22T11:12:04.550Z,25.7616
2023-05-22T11:13:05.512Z,25.7794
2023-05-22T11:14:07.458Z,25.9227
2023-05-22T11:15:08.307Z,26.0685
2023-05-22T11:16:09.678Z,26.0551
2023-05-22T11:17:11.527Z,25.9775
2023-05-22T11:18:11.993Z,25.9636
2023-05-22T11:20:13.716Z,25.9959
2023-05-22T11:22:13.851Z,25.9364
2023-05-22T11:23:14.714Z,26.1583
2023-05-22T11:24:16.052Z,26.1909
2023-05-22T11:25:16.194Z,26.3044
2023-05-22T11:26:16.294Z,26.2379
2023-05-22T11:27:16.710Z,26.3999
2023-05-22T11:28:18.282Z,26.3401
2023-05-22T11:29:19.916Z,26.2418
2023-05-22T11:30:21.362Z,26.3453
2023-05-22T11:31:23.316Z,26.2369
2023-05-22T11:32:25.103Z,26.2636
2023-05-22T11:33:26.873Z,26.1922
2023-05-22T11:34:27.780Z,26.0223
2023-05-22T11:35:29.198Z,25.8039
2023-05-22T11:36:30.638Z,25.7644
2023-05-22T11:37:32.288Z,25.8598
2023-05-22T11:38:33.943Z,26.0000
2023-05-22T11:39:34.423Z,26.1646
2023-05-22T11:40:35.642Z,26.2380
2023-05-22T11:41:35.828Z,26.3698
2023-05-22T11:42:36.187Z,26.4586
2023-05-22T11:43:37.259Z,26.7343
2023-05-22T11:44:39.340Z,26.8936
2023-05-22T11:45:40.094Z,27.0610
2023-05-22T11:46:41.735Z,27.2667
2023-05-22T11:47:43.506Z,27.2973
2023-05-22T11:48:45.578Z,26.9730
2023-05-22T11:49:45.922Z,27.2477
2023-05-22T11:50:47.647Z,27.5176
2023-05-22T11:51:48.652Z,27.6865
2023-05-22T11:52:49.604Z,27.8159
2023-05-22T11:53:50.374Z,28.1325
2023-05-22T11:54:51.678Z,27.6312
2023-05-22T11:55:52.784Z,27.4133
2023-05-22T11:56:54.493Z,27.3126
2023-05-22T11:57:56.013Z,27.4865
2023-05-22T11:58:56.202Z,27.6424
2023-05-22T11:59:56.948Z,27.8766
2023-05-22T12:00:57.060Z,27.9983
2023-05-22T12:01:58.063Z,27.9225
2023-05-22T12:02:59.404Z,27.4958
2023-05-22T12:04:00.035Z,27.4108
2023-05-22T12:05:01.338Z,27.2605
2023-05-22T12:06:03.146Z,27.5107
2023-05-22T12:07:04.211Z,27.6857
2023-05-22T12:08:04.823Z,27.2304
2023-05-22T12:09:06.810Z,27.5166
2023-05-22T12:10:08.954Z,27.9950
2023-05-22T12:11:10.356Z,27.8337
2023-05-22T12:12:10.992Z,27.8766
2023-05-22T12:13:11.002Z,28.2205
2023-05-22T12:14:11.720Z,28.2075
2023-05-22T12:15:13.692Z,28.2705
2023-05-22T12:16:14.289Z,28.4585
2023-05-22T12:17:14.831Z,28.6757
2023-05-22T12:18:14.835Z,28.9088
2023-05-22T12:19:16.068Z,28.8515
2023-05-22T12:20:17.949Z,29.2593
2023-05-22T12:21:18.616Z,29.3084
2023-05-22T12:22:19.732Z,29.2265
2023-05-22T12:23:20.475Z,29.0891
2023-05-22T12:24:21.274Z,28.6402
2023-05-22T12:25:21.337Z,28.9737
2023-05-22T12:26:23.501Z,29.1244
2023-05-22T12:27:24.676Z,29.4920
2023-05-22T12:28:26.681Z,28.9781
2023-05-22T12:29:28.585Z,28.7930
2023-05-22T12:30:30.472Z,29.2451
2023-05-22T12:31:32.604Z,29.4617
2023-05-22T12:32:32.701Z,29.1546
2023-05-22T12:33:34.857Z,29.1934
2023-05-22T12:34:36.469Z,28.1470
2023-05-22T12:35:38.073Z,27.9925
2023-05-22T12:36:38.340Z,28.0501
2023-05-22T12:37:40.413Z,28.0168
2023-05-22T12:38:40.946Z,28.0134
2023-05-22T12:39:41.912Z,27.8130
2023-05-22T12:40:43.694Z,28.2394
2023-05-22T12:41:44.282Z,28.5653
2023-05-22T12:42:45.356Z,28.3350
2023-05-22T12:43:47.397Z,28.3935
2023-05-22T12:44:49.009Z,28.9123
2023-05-22T12:45:50.657Z,28.6286
2023-05-22T12:46:52.186Z,29.0531
2023-05-22T12:47:53.297Z,28.2814
2023-05-22T12:48:55.211Z,27.3410
2023-05-22T12:49:56.615Z,26.6381
2023-05-22T12:50:57.016Z,26.2552
2023-05-22T12:51:57.716Z,25.6961
2023-05-22T12:52:57.812Z,25.5148
2023-05-22T12:53:58.945Z,25.4763
2023-05-22T12:55:00.377Z,25.8173
2023-05-22T12:56:00.670Z,26.6239
2023-05-22T12:57:02.716Z,26.8010
2023-05-22T12:58:02.736Z,27.2611
2023-05-22T12:59:04.835Z,27.2258
2023-05-22T13:00:05.082Z,27.7706
2023-05-22T13:01:06.554Z,28.2312
2023-05-22T13:02:07.948Z,28.0728
2023-05-22T13:03:09.573Z,28.0378
2023-05-22T13:04:11.042Z,28.5147
2023-05-22T13:05:11.517Z,28.7597
2023-05-22T13:06:13.151Z,28.5538
2023-05-22T13:07:14.181Z,28.7235
2023-05-22T13:08:14.370Z,28.4614
2023-05-22T13:09:14.771Z,28.6269
2023-05-22T13:10:16.096Z,28.8301
2023-05-22T13:11:17.347Z,29.2242
2023-05-22T13:12:17.832Z,29.5918
2023-05-22T13:13:18.770Z,29.5548
2023-05-22T13:14:20.545Z,29.8248
2023-05-22T13:15:22.109Z,29.1836
2023-05-22T13:16:22.918Z,28.9406
2023-05-22T13:17:24.520Z,29.1358
2023-05-22T13:18:25.088Z,29.6622
2023-05-22T13:19:27.347Z,29.8080
2023-05-22T13:20:27.912Z,30.0677
2023-05-22T13:21:29.079Z,29.5458
2023-05-22T13:22:29.965Z,29.3486
2023-05-22T13:24:30.283Z,28.9303
2023-05-22T13:25:30.937Z,28.7211
2023-05-22T13:26:31.173Z,28.9195
2023-05-22T13:27:33.942Z,29.2071
2023-05-22T13:28:33.939Z,29.3260
2023-05-22T13:29:35.336Z,29.3400
2023-05-22T13:30:36.836Z,29.5756
2023-05-22T13:33:41.087Z,29.6300
2023-05-22T13:35:42.140Z,29.7588
2023-05-22T13:36:43.379Z,29.6020
2023-05-22T13:37:45.492Z,30.1991
2023-05-22T13:39:45.659Z,30.2094
2023-05-22T13:40:48.194Z,30.0388
2023-05-22T13:41:45.955Z,30.2518
2023-05-22T13:42:46.128Z,29.2852
2023-05-22T13:43:47.550Z,28.5477
2023-05-22T13:45:48.958Z,27.4648
2023-05-22T13:46:50.435Z,26.7576
2023-05-22T13:47:51.839Z,26.6142
2023-05-22T13:48:53.579Z,26.0636
2023-05-22T13:49:54.149Z,25.5396
2023-05-22T13:50:55.565Z,25.4445
2023-05-22T13:51:57.727Z,25.5152
2023-05-22T13:52:57.910Z,26.8671
2023-05-22T13:53:58.171Z,27.6531
2023-05-22T13:54:59.697Z,28.2867
2023-05-22T13:56:01.207Z,28.1960
2023-05-22T13:57:02.868Z,28.2133
2023-05-22T13:58:04.263Z,28.6536
2023-05-22T13:59:09.005Z,28.9530
2023-05-22T14:00:06.482Z,29.8010
2023-05-22T14:01:06.653Z,30.1461
2023-05-22T14:02:07.917Z,30.3818
2023-05-22T14:03:09.088Z,30.9139
2023-05-22T14:04:09.073Z,30.3386
2023-05-22T14:05:09.949Z,29.6788
2023-05-22T14:06:12.613Z,29.3801
2023-05-22T14:07:13.636Z,29.8100
2023-05-22T14:08:15.515Z,30.5148
2023-05-22T14:09:17.008Z,30.9627
2023-05-22T14:10:18.430Z,29.9153
2023-05-22T14:11:20.216Z,29.4136
2023-05-22T14:12:20.928Z,28.6327
2023-05-22T14:13:22.378Z,27.8993
2023-05-22T14:14:24.564Z,26.9255
2023-05-22T14:15:26.503Z,26.4594
2023-05-22T14:16:27.877Z,26.4133
2023-05-22T14:17:29.179Z,27.0409
2023-05-22T14:18:30.569Z,27.4277
2023-05-22T14:19:32.987Z,27.7513
2023-05-22T14:20:33.316Z,28.1507
2023-05-22T14:21:35.348Z,28.5441
2023-05-22T14:22:47.959Z,28.7700
2023-05-22T14:25:06.713Z,29.0822
2023-05-22T14:26:08.569Z,29.4176
2023-05-22T14:27:10.849Z,28.0289
2023-05-22T14:29:10.725Z,27.7276
2023-05-22T14:30:12.762Z,27.9963